Create Custom Reports and Graphics: Custom Report

Lodi Weather Stations Latest Observations

Map

15 Minute Data

Lodi West

10 Stations

15 Minute Data | America/Los_Angeles
as of 4/3/20 4:21 PM PDT
Station Date Time Temp (°F) Dew Pt (°F) RH (%) Wind Spd (mph) Wind Dir (°) Wind Gust (mph) Latest Rain (In) Daily Rain (In) Daily Min Temp (°F) Daily Max Temp (°F)
Guard Rd (Lodi WSW) 4/3/20 1615 68.1   0.2 31.7   13.6 26   11 5.8   2.4 WNW | 288 13.4   2.5 0.00 0.00 37.4   2.5 68.5   0.3
Utter - Wilson 4/3/20 1615 69.6   0.0 28.5   9.4 21   7 4.1   5.8 WNW | 297 7.5   7.7 0.00 0.00 37.8   6.4 71.8   0.2
Clarksburg 4/3/20 1615 69.2   0.3 37.8   16.5 32   16 3.6   1.8 WSW | 257 9.3   4.9 0.00 0.00 36.1   6.7 69.6   0.2
Clarksburg-3A2 4/3/20 1615 68.5   0.5 32.3   9.9 26   8 5.2   3.1 NW | 311 8.9   4.1 0.00 0.00 36.2   2.1 69.0   0.7
Gorter - Wilson 4/3/20 1615 69.4   0.7 34.6   9.9 28   9 4.8   4.0 NNW | 341 8.3   8.9 0.00 0.00 35.8   7.8 70.3   0.6
Hood 4/3/20 1615 68.2   0.3 27.7   11.4 22   8 4.3   1.5 WNW | 300 9.8   4.9 0.00 0.00 35.1   10.0 69.6   0.7
Courtland-C3 4/3/20 1615 68.2   0.5 30.4   9.8 24   8 7.0   2.5 WNW | 284 12.7   5.8 0.00 0.00 37.7   2.5 69.4   0.8
Pacific Fruit 4/3/20 1600 68.3   0.7 34.0   13.5 28   12 7.2   1.1 W | 277 15.0   2.5 0.00 0.00 40.2   6.6 70.1   0.1
Ryer Island South 4/3/20 1615 67.8   1.3 31.7   15.1 26   13 5.7   1.6 W | 279 11.1   5.1 0.00 0.00 44.1   0.2 69.3   0.7
Claussen 4/3/20 1615 68.6   0.4 36.3   9.4 30   10 5.5   1.1 NW | 325 12.0   2.4 0.00 0.00 35.8   5.5 70.0   0.4
Max     69.6 37.8 32 7.2 - 15.0 0.00 0.00 44.1 71.8
Avg     68.6 32.5 26 5.3 - 10.8 0.00 - - -
Min     67.8 27.7 21 3.6 - 7.5 0.00 0.00 35.1 68.5

Lodi Central

Latest Observations

15 Minute Data | America/Los_Angeles
as of 4/3/20 4:21 PM PDT
Station Date Time Temp (°F) Dew Pt (°F) RH (%) Wind Dir (°) Wind Spd (mph) Wind Gust (mph) Latest Rain (In) Daily Rain (In) Daily Min Temp (°F) Daily Max Temp (°F)
Galt West 4/3/20 1615 68.0   0.6 31.3   15.5 25   12 WNW | 301 6.6   3.6 12.9   3.9 0.00 0.00 37.4   4.5 68.7   0.4
Valley Oak 4/3/20 1600 67.2   0.3 29.0   18.8 24   13 NW | 312 5.7   2.4 11.2   5.5 0.00 0.00 35.5   7.1 67.5   0.6
Thornton 4/3/20 1615 68.0   0.8 27.8   19.2 22   12 NW | 311 6.0   3.1 13.8   3.4 0.00 0.00 34.9   9.8 68.7   0.1
Kost Rd 4/3/20 1615 67.4   0.1 34.1   16.5 29   14 NW | 311 5.7   0.6 12.4   1.6 0.00 0.00 36.6   5.9 68.6   0.5
DeVries Road-North 4/3/20 1615 67.3   0.1 33.9   14.8 29   13 NW | 317 5.8   1.9 10.6   2.8 0.00 0.00 36.1   5.9 68.1   0.1
Lodi (LangeTwins) 4/3/20 1615 68.7   0.1 33.4   16.7 27   14 WNW | 294 4.5   2.9 10.1   5.0 0.00 0.00 36.0   5.0 69.3   0.3
Acampo 4/3/20 1615 67.3   0.7 27.1   19.5 22   13 NW | 306 5.0   3.0 10.5   3.7 0.00 0.00 37.7   3.8 68.0   0.3
Lodi West 4/3/20 1615 67.7   0.7 27.7   16.3 22   11 WNW | 296 6.2   1.6 14.0   5.1 0.00 0.00 39.2   1.7 68.4   0.9
Max     68.7 34.1 29 - 6.6 14.0 0.00 0.00 39.2 69.3
Avg     67.7 30.5 25 - 5.7 12.0 0.00 - - -
Min     67.2 27.1 22 - 4.5 10.1 0.00 0.00 34.9 67.5

Lodi South

18 Stations

15 Minute Data | America/Los_Angeles
as of 4/3/20 4:21 PM PDT
Station Date Time Temp (°F) Dew Pt (°F) RH (%) Wind Spd (mph) Wind Dir (°) Wind Gust (mph) Latest Rain (In) Daily Rain (In) Daily Min Temp (°F) Daily Max Temp (°F)
Borden Hills 4/3/20 1615 68.0   0.7 40.9   14.2 37   17 5.5   3.1 NW | 312 10.6   2.1 0.00 0.00 37.7   1.2 69.1   0.2
Collegeville 4/3/20 1615 68.4   0.4 30.8   12.6 25   10 5.8   1.4 WNW | 288 12.0   2.1 0.00 0.00 33.2   4.4 69.1   0.2
Galt-East 4/3/20 1615 66.4   1.1 39.3   18.1 37   20 5.7   2.0 WSW | 251 14.2   5.5 0.00 0.00 34.6   0.6 66.9   1.2
Escalon 4/3/20 1615 68.6   0.0 32.6   10.5 26   9 4.6   0.7 NW | 319 10.4   1.3 0.00 0.00 37.3   2.6 70.1   0.7
Victor - N (Katusha) 4/3/20 1615 66.7   0.7 31.4   15.3 27   12 4.9   3.2 WNW | 285 9.1   8.0 0.00 0.00 35.4   1.2 67.5   0.3
Teresi-Alpine Rd (East Lodi) 4/3/20 1615 68.5   0.6 34.0   18.8 28   15 6.0   3.9 WNW | 294 11.4   4.1 0.00 0.00 35.9   3.4 69.6   1.1
Gilbeau Ranch 4/3/20 1600 67.6   1.4 37.4   21.2 33   20 4.4   0.2 WNW | 284 11.2   1.8 0.00 0.00 35.0   1.1 68.8   0.7
Linden 4/3/20 1615 68.0   0.7 35.2   16.3 30   14 4.6   1.3 WNW | 284 10.6   3.4 0.00 0.00 32.1   0.6 68.5   0.7
Live Oak 4/3/20 1615 67.7   0.3 32.2   15.9 27   13 7.6   1.2 W | 273 14.6   2.2 0.00 0.00 36.0   6.8 68.4   0.0
Lockeford 4/3/20 1615 66.3   0.6 34.0   13.7 30   13 5.7   0.7 NNW | 336 10.5   6.7 0.00 0.00 35.6   0.6 66.8   0.7
Lone Oak-L28 4/3/20 1615 65.9   0.5 39.1   13.9 37   16 5.6   3.7 NW | 308 10.4   2.9 0.00 0.00 34.0   1.4 66.9   1.0
Colony 1 4/3/20 1615 68.8   0.3 37.8   20.3 32   18 2.9   4.3 W | 281 9.2   6.0 0.00 0.00 36.8   0.1 70.0   0.7
Colony 2 4/3/20 1615 69.4   1.4 35.7   17.8 29   16 4.9   3.4 W | 274 9.1   6.8 0.00 0.00 36.6   0.3 70.9   0.3
Sheldon 4/3/20 1615 67.3   0.2 35.3   20.9 31   18 3.6   4.8 WNW | 293 8.4   6.7 0.00 0.00 37.2   0.6 67.8   0.3
Sierra Loma-L27 4/3/20 1615 67.0   0.7 40.0   15.5 37   18 5.1   4.0 NNW | 330 11.5   3.0 0.00 0.00 38.3   2.9 67.9   1.0
Simmerhorn 4/3/20 1615 67.1   0.4 35.4   19.6 31   17 - - - - - 36.2   0.3 67.6   0.7
Sloughhouse 4/3/20 1615 66.8   0.6 - - 2.6   0.6 W | 260 8.8   3.4 0.00 0.00 34.9   5.3 68.9   0.4
5 Wells 4/3/20 1615 67.1   0.9 36.4   22.0 32   20 5.5   3.9 NW | 304 10.4   5.2 0.00 0.00 36.5   1.5 67.6   1.0
Max     69.4 40.9 37 7.6 - 14.6 0.00 0.00 38.3 70.9
Avg     67.5 35.7 31 5.0 - 10.7 0.00 - - -
Min     65.9 30.8 25 2.6 - 8.4 0.00 0.00 32.1 66.8